sensor_id;sensor_type;location;lat;lon;timestamp;pressure;altitude;pressure_sealevel;temperature;humidity
70841;BME280;58465;51.534;9.934;2023-07-13T00:01:30;99716.22;;;24.89;42.02
70841;BME280;58465;51.534;9.934;2023-07-13T00:03:56;99720.19;;;24.85;41.91
70841;BME280;58465;51.534;9.934;2023-07-13T00:06:21;99725.66;;;24.85;41.99
70841;BME280;58465;51.534;9.934;2023-07-13T00:08:46;99735.84;;;24.83;42.24
70841;BME280;58465;51.534;9.934;2023-07-13T00:11:13;99731.25;;;24.83;41.87
70841;BME280;58465;51.534;9.934;2023-07-13T00:13:39;99727.06;;;24.79;42.30
70841;BME280;58465;51.534;9.934;2023-07-13T00:16:04;99729.81;;;24.79;42.17
70841;BME280;58465;51.534;9.934;2023-07-13T00:18:30;99729.94;;;24.77;41.82
70841;BME280;58465;51.534;9.934;2023-07-13T00:20:55;99731.72;;;24.67;41.97
70841;BME280;58465;51.534;9.934;2023-07-13T00:23:20;99739.63;;;24.70;41.94
70841;BME280;58465;51.534;9.934;2023-07-13T00:25:46;99742.22;;;24.72;42.50
70841;BME280;58465;51.534;9.934;2023-07-13T00:28:11;99738.06;;;24.68;42.08
70841;BME280;58465;51.534;9.934;2023-07-13T00:30:36;99734.09;;;24.61;41.89
70841;BME280;58465;51.534;9.934;2023-07-13T00:33:01;99729.25;;;24.64;42.68
70841;BME280;58465;51.534;9.934;2023-07-13T00:35:26;99726.50;;;24.64;42.17
70841;BME280;58465;51.534;9.934;2023-07-13T00:37:51;99725.25;;;24.68;42.64
70841;BME280;58465;51.534;9.934;2023-07-13T00:40:17;99723.66;;;24.66;42.50
70841;BME280;58465;51.534;9.934;2023-07-13T00:42:42;99723.91;;;24.63;42.21
70841;BME280;58465;51.534;9.934;2023-07-13T00:46:09;99729.50;;;24.61;42.33
70841;BME280;58465;51.534;9.934;2023-07-13T00:47:53;99730.38;;;24.62;42.92
70841;BME280;58465;51.534;9.934;2023-07-13T00:50:19;99723.31;;;24.59;42.44
70841;BME280;58465;51.534;9.934;2023-07-13T00:52:47;99729.91;;;24.57;42.59
70841;BME280;58465;51.534;9.934;2023-07-13T00:55:12;99728.91;;;24.58;43.01
70841;BME280;58465;51.534;9.934;2023-07-13T00:57:38;99722.59;;;24.57;42.91
70841;BME280;58465;51.534;9.934;2023-07-13T01:00:04;99724.09;;;24.50;42.57
70841;BME280;58465;51.534;9.934;2023-07-13T01:02:31;99727.28;;;24.55;42.51
70841;BME280;58465;51.534;9.934;2023-07-13T01:04:57;99723.50;;;24.47;42.72
70841;BME280;58465;51.534;9.934;2023-07-13T01:07:22;99726.22;;;24.47;42.53
70841;BME280;58465;51.534;9.934;2023-07-13T01:09:47;99725.97;;;24.50;42.46
70841;BME280;58465;51.534;9.934;2023-07-13T01:12:12;99731.28;;;24.51;43.19
70841;BME280;58465;51.534;9.934;2023-07-13T01:14:38;99736.72;;;24.51;42.95
70841;BME280;58465;51.534;9.934;2023-07-13T01:17:03;99734.16;;;24.50;43.04
70841;BME280;58465;51.534;9.934;2023-07-13T01:22:00;99738.25;;;24.44;42.92
70841;BME280;58465;51.534;9.934;2023-07-13T01:24:26;99731.94;;;24.44;43.16
70841;BME280;58465;51.534;9.934;2023-07-13T01:26:51;99731.06;;;24.43;43.00
70841;BME280;58465;51.534;9.934;2023-07-13T01:29:16;99741.13;;;24.42;43.04
70841;BME280;58465;51.534;9.934;2023-07-13T01:31:41;99735.94;;;24.39;42.79
70841;BME280;58465;51.534;9.934;2023-07-13T01:34:06;99734.31;;;24.37;42.80
70841;BME280;58465;51.534;9.934;2023-07-13T01:36:31;99738.91;;;24.36;42.82
70841;BME280;58465;51.534;9.934;2023-07-13T01:38:57;99733.31;;;24.38;43.34
70841;BME280;58465;51.534;9.934;2023-07-13T01:41:22;99738.16;;;24.34;42.91
70841;BME280;58465;51.534;9.934;2023-07-13T01:43:47;99744.38;;;24.36;43.43
70841;BME280;58465;51.534;9.934;2023-07-13T01:46:12;99743.63;;;24.34;43.49
70841;BME280;58465;51.534;9.934;2023-07-13T01:48:37;99733.81;;;24.32;43.26
70841;BME280;58465;51.534;9.934;2023-07-13T01:51:02;99737.09;;;24.26;43.09
70841;BME280;58465;51.534;9.934;2023-07-13T01:53:28;99744.41;;;24.25;43.57
70841;BME280;58465;51.534;9.934;2023-07-13T01:55:53;99747.00;;;24.27;43.61
70841;BME280;58465;51.534;9.934;2023-07-13T01:58:18;99742.53;;;24.26;43.43
70841;BME280;58465;51.534;9.934;2023-07-13T02:00:43;99737.69;;;24.29;43.68
70841;BME280;58465;51.534;9.934;2023-07-13T02:03:08;99741.31;;;24.30;43.49
70841;BME280;58465;51.534;9.934;2023-07-13T02:05:34;99738.69;;;24.28;43.67
70841;BME280;58465;51.534;9.934;2023-07-13T02:07:59;99739.56;;;24.29;43.75
70841;BME280;58465;51.534;9.934;2023-07-13T02:10:24;99748.25;;;24.23;43.34
70841;BME280;58465;51.534;9.934;2023-07-13T02:12:49;99744.66;;;24.22;43.71
70841;BME280;58465;51.534;9.934;2023-07-13T02:15:15;99742.03;;;24.21;44.08
70841;BME280;58465;51.534;9.934;2023-07-13T02:17:41;99735.47;;;24.23;44.06
70841;BME280;58465;51.534;9.934;2023-07-13T02:20:06;99726.66;;;24.20;43.75
70841;BME280;58465;51.534;9.934;2023-07-13T02:22:32;99729.03;;;24.24;44.07
70841;BME280;58465;51.534;9.934;2023-07-13T02:24:57;99721.13;;;24.21;43.87
70841;BME280;58465;51.534;9.934;2023-07-13T02:27:22;99715.88;;;24.18;43.92
70841;BME280;58465;51.534;9.934;2023-07-13T02:29:47;99702.34;;;24.17;43.62
70841;BME280;58465;51.534;9.934;2023-07-13T02:32:12;99695.19;;;24.04;43.71
70841;BME280;58465;51.534;9.934;2023-07-13T02:34:38;99695.06;;;24.06;43.74
70841;BME280;58465;51.534;9.934;2023-07-13T02:37:03;99681.81;;;24.01;43.73
70841;BME280;58465;51.534;9.934;2023-07-13T02:39:28;99689.84;;;24.03;44.06
70841;BME280;58465;51.534;9.934;2023-07-13T02:41:53;99687.53;;;23.98;44.09
70841;BME280;58465;51.534;9.934;2023-07-13T02:44:19;99692.09;;;23.98;44.19
70841;BME280;58465;51.534;9.934;2023-07-13T02:46:44;99688.84;;;24.04;43.98
70841;BME280;58465;51.534;9.934;2023-07-13T02:49:09;99691.47;;;24.05;44.32
70841;BME280;58465;51.534;9.934;2023-07-13T02:51:35;99680.69;;;24.04;44.24
70841;BME280;58465;51.534;9.934;2023-07-13T02:54:03;99693.44;;;24.03;44.13
70841;BME280;58465;51.534;9.934;2023-07-13T02:56:29;99699.66;;;23.94;44.28
70841;BME280;58465;51.534;9.934;2023-07-13T02:58:55;99709.00;;;23.92;44.37
70841;BME280;58465;51.534;9.934;2023-07-13T03:01:21;99712.09;;;23.87;44.40
70841;BME280;58465;51.534;9.934;2023-07-13T03:03:47;99711.97;;;23.89;44.44
70841;BME280;58465;51.534;9.934;2023-07-13T03:06:12;99712.22;;;23.86;44.54
70841;BME280;58465;51.534;9.934;2023-07-13T03:08:38;99704.66;;;23.78;44.62
70841;BME280;58465;51.534;9.934;2023-07-13T03:11:07;99704.31;;;23.83;45.04
70841;BME280;58465;51.534;9.934;2023-07-13T03:13:33;99702.28;;;23.85;44.98
70841;BME280;58465;51.534;9.934;2023-07-13T03:15:58;99703.28;;;23.84;44.80
70841;BME280;58465;51.534;9.934;2023-07-13T03:18:23;99712.50;;;23.83;44.48
70841;BME280;58465;51.534;9.934;2023-07-13T03:20:52;99712.59;;;23.81;44.65
70841;BME280;58465;51.534;9.934;2023-07-13T03:23:17;99702.28;;;23.85;44.96
70841;BME280;58465;51.534;9.934;2023-07-13T03:25:42;99706.88;;;23.84;45.09
70841;BME280;58465;51.534;9.934;2023-07-13T03:28:09;99713.19;;;23.85;44.86
70841;BME280;58465;51.534;9.934;2023-07-13T03:30:35;99712.34;;;23.84;45.26
70841;BME280;58465;51.534;9.934;2023-07-13T03:33:00;99723.41;;;23.83;45.17
70841;BME280;58465;51.534;9.934;2023-07-13T03:35:25;99727.59;;;23.87;45.19
70841;BME280;58465;51.534;9.934;2023-07-13T03:37:50;99729.22;;;23.78;45.13
70841;BME280;58465;51.534;9.934;2023-07-13T03:40:16;99743.47;;;23.71;44.76
70841;BME280;58465;51.534;9.934;2023-07-13T03:42:41;99746.09;;;23.72;45.37
70841;BME280;58465;51.534;9.934;2023-07-13T03:45:07;99745.97;;;23.74;45.49
70841;BME280;58465;51.534;9.934;2023-07-13T03:47:32;99745.69;;;23.77;45.50
70841;BME280;58465;51.534;9.934;2023-07-13T03:49:57;99753.00;;;23.65;44.76
70841;BME280;58465;51.534;9.934;2023-07-13T03:52:22;99753.41;;;23.72;45.54
70841;BME280;58465;51.534;9.934;2023-07-13T03:54:48;99768.88;;;23.71;45.34
70841;BME280;58465;51.534;9.934;2023-07-13T03:57:13;99770.75;;;23.71;44.93
70841;BME280;58465;51.534;9.934;2023-07-13T03:59:38;99765.28;;;23.71;45.63
70841;BME280;58465;51.534;9.934;2023-07-13T04:02:03;99778.41;;;23.65;45.12
70841;BME280;58465;51.534;9.934;2023-07-13T04:04:30;99781.03;;;23.67;45.17
70841;BME280;58465;51.534;9.934;2023-07-13T04:06:55;99782.13;;;23.64;45.24
70841;BME280;58465;51.534;9.934;2023-07-13T04:09:21;99786.00;;;23.62;45.01
70841;BME280;58465;51.534;9.934;2023-07-13T04:11:46;99779.69;;;23.61;45.41
70841;BME280;58465;51.534;9.934;2023-07-13T04:14:11;99782.63;;;23.58;45.00
70841;BME280;58465;51.534;9.934;2023-07-13T04:16:36;99788.59;;;23.63;45.53
70841;BME280;58465;51.534;9.934;2023-07-13T04:19:02;99790.56;;;23.61;45.31
70841;BME280;58465;51.534;9.934;2023-07-13T04:21:27;99792.66;;;23.58;45.27
70841;BME280;58465;51.534;9.934;2023-07-13T04:23:52;99791.91;;;23.56;45.71
70841;BME280;58465;51.534;9.934;2023-07-13T04:26:18;99790.00;;;23.45;45.22
70841;BME280;58465;51.534;9.934;2023-07-13T04:28:45;99794.34;;;23.48;45.47
70841;BME280;58465;51.534;9.934;2023-07-13T04:31:11;99806.69;;;23.53;45.57
70841;BME280;58465;51.534;9.934;2023-07-13T04:33:36;99804.50;;;23.46;44.98
70841;BME280;58465;51.534;9.934;2023-07-13T04:36:01;99804.94;;;23.52;45.48
70841;BME280;58465;51.534;9.934;2023-07-13T04:38:28;99808.66;;;23.51;45.25
70841;BME280;58465;51.534;9.934;2023-07-13T04:40:55;99803.63;;;23.45;45.03
70841;BME280;58465;51.534;9.934;2023-07-13T04:43:20;99814.69;;;23.44;45.39
70841;BME280;58465;51.534;9.934;2023-07-13T04:45:45;99816.16;;;23.37;45.23
70841;BME280;58465;51.534;9.934;2023-07-13T04:48:11;99816.56;;;23.43;45.18
70841;BME280;58465;51.534;9.934;2023-07-13T04:50:36;99816.44;;;23.45;45.52
70841;BME280;58465;51.534;9.934;2023-07-13T04:53:02;99824.22;;;23.38;45.37
70841;BME280;58465;51.534;9.934;2023-07-13T04:55:27;99820.50;;;23.39;45.54
70841;BME280;58465;51.534;9.934;2023-07-13T04:57:55;99825.22;;;23.48;45.89
70841;BME280;58465;51.534;9.934;2023-07-13T05:00:20;99822.50;;;23.48;45.64
70841;BME280;58465;51.534;9.934;2023-07-13T05:02:46;99823.91;;;23.54;45.66
70841;BME280;58465;51.534;9.934;2023-07-13T05:05:11;99828.72;;;23.50;45.49
70841;BME280;58465;51.534;9.934;2023-07-13T05:07:36;99827.25;;;23.57;45.25
70841;BME280;58465;51.534;9.934;2023-07-13T05:10:02;99828.00;;;23.59;45.58
70841;BME280;58465;51.534;9.934;2023-07-13T05:12:28;99824.16;;;23.62;45.38
70841;BME280;58465;51.534;9.934;2023-07-13T05:14:54;99824.03;;;23.63;45.46
70841;BME280;58465;51.534;9.934;2023-07-13T05:17:19;99820.31;;;23.64;45.33
70841;BME280;58465;51.534;9.934;2023-07-13T05:19:44;99824.53;;;23.68;45.61
70841;BME280;58465;51.534;9.934;2023-07-13T05:22:09;99833.34;;;23.72;45.39
70841;BME280;58465;51.534;9.934;2023-07-13T05:24:35;99831.59;;;23.71;44.90
70841;BME280;58465;51.534;9.934;2023-07-13T05:27:00;99835.81;;;23.75;45.17
70841;BME280;58465;51.534;9.934;2023-07-13T05:29:26;99829.47;;;23.75;45.32
70841;BME280;58465;51.534;9.934;2023-07-13T05:31:51;99829.13;;;23.79;45.04
70841;BME280;58465;51.534;9.934;2023-07-13T05:34:16;99828.13;;;23.80;44.66
70841;BME280;58465;51.534;9.934;2023-07-13T05:36:42;99827.03;;;23.83;44.91
70841;BME280;58465;51.534;9.934;2023-07-13T05:39:07;99827.50;;;23.88;45.05
70841;BME280;58465;51.534;9.934;2023-07-13T05:41:32;99828.16;;;23.91;44.65
70841;BME280;58465;51.534;9.934;2023-07-13T05:43:57;99826.28;;;23.92;44.37
70841;BME280;58465;51.534;9.934;2023-07-13T05:46:22;99824.66;;;23.89;43.98
70841;BME280;58465;51.534;9.934;2023-07-13T05:48:47;99826.00;;;23.95;44.06
70841;BME280;58465;51.534;9.934;2023-07-13T05:51:13;99822.19;;;23.97;44.26
70841;BME280;58465;51.534;9.934;2023-07-13T05:53:38;99822.53;;;24.04;43.92
70841;BME280;58465;51.534;9.934;2023-07-13T05:56:03;99826.13;;;24.04;44.04
70841;BME280;58465;51.534;9.934;2023-07-13T05:58:29;99827.41;;;24.12;43.46
70841;BME280;58465;51.534;9.934;2023-07-13T06:01:04;99823.28;;;24.17;43.28
70841;BME280;58465;51.534;9.934;2023-07-13T06:03:30;99829.13;;;24.24;43.52
70841;BME280;58465;51.534;9.934;2023-07-13T06:05:55;99836.56;;;24.33;43.24
70841;BME280;58465;51.534;9.934;2023-07-13T06:08:21;99841.59;;;24.60;42.34
70841;BME280;58465;51.534;9.934;2023-07-13T06:10:46;99839.63;;;25.26;40.13
70841;BME280;58465;51.534;9.934;2023-07-13T06:13:11;99838.97;;;25.75;38.83
70841;BME280;58465;51.534;9.934;2023-07-13T06:15:36;99842.41;;;26.07;38.08
70841;BME280;58465;51.534;9.934;2023-07-13T06:18:01;99831.56;;;25.96;38.29
70841;BME280;58465;51.534;9.934;2023-07-13T06:20:26;99835.44;;;25.94;38.00
70841;BME280;58465;51.534;9.934;2023-07-13T06:22:52;99845.72;;;26.32;36.91
70841;BME280;58465;51.534;9.934;2023-07-13T06:25:17;99838.28;;;26.63;36.24
70841;BME280;58465;51.534;9.934;2023-07-13T06:27:42;99842.31;;;26.58;36.11
70841;BME280;58465;51.534;9.934;2023-07-13T06:30:08;99838.44;;;26.21;36.72
70841;BME280;58465;51.534;9.934;2023-07-13T06:32:33;99849.78;;;25.86;37.36
70841;BME280;58465;51.534;9.934;2023-07-13T06:34:59;99853.78;;;25.72;37.68
70841;BME280;58465;51.534;9.934;2023-07-13T06:37:24;99846.56;;;25.71;37.88
70841;BME280;58465;51.534;9.934;2023-07-13T06:39:49;99845.44;;;25.74;38.20
70841;BME280;58465;51.534;9.934;2023-07-13T06:42:15;99848.09;;;25.85;37.92
70841;BME280;58465;51.534;9.934;2023-07-13T06:44:40;99844.19;;;26.18;37.16
70841;BME280;58465;51.534;9.934;2023-07-13T06:47:06;99846.63;;;26.51;36.60
70841;BME280;58465;51.534;9.934;2023-07-13T06:49:31;99844.50;;;26.74;36.08
70841;BME280;58465;51.534;9.934;2023-07-13T06:51:56;99849.44;;;26.90;35.58
70841;BME280;58465;51.534;9.934;2023-07-13T06:54:21;99848.16;;;26.94;35.61
70841;BME280;58465;51.534;9.934;2023-07-13T06:56:46;99840.91;;;26.83;35.50
70841;BME280;58465;51.534;9.934;2023-07-13T06:59:12;99846.09;;;26.77;35.92
70841;BME280;58465;51.534;9.934;2023-07-13T07:01:37;99841.72;;;26.55;35.99
70841;BME280;58465;51.534;9.934;2023-07-13T07:04:03;99848.31;;;26.33;36.30
70841;BME280;58465;51.534;9.934;2023-07-13T07:06:28;99846.19;;;26.16;36.70
70841;BME280;58465;51.534;9.934;2023-07-13T07:08:53;99852.03;;;26.02;36.73
70841;BME280;58465;51.534;9.934;2023-07-13T07:11:20;99849.00;;;25.95;36.66
70841;BME280;58465;51.534;9.934;2023-07-13T07:13:47;99855.31;;;25.96;36.59
70841;BME280;58465;51.534;9.934;2023-07-13T07:16:12;99853.03;;;26.01;36.75
70841;BME280;58465;51.534;9.934;2023-07-13T07:18:37;99853.78;;;26.03;36.33
70841;BME280;58465;51.534;9.934;2023-07-13T07:21:03;99854.69;;;26.13;36.50
70841;BME280;58465;51.534;9.934;2023-07-13T07:23:28;99842.84;;;26.03;36.55
70841;BME280;58465;51.534;9.934;2023-07-13T07:25:53;99846.44;;;26.03;36.83
70841;BME280;58465;51.534;9.934;2023-07-13T07:28:19;99844.00;;;26.10;36.82
70841;BME280;58465;51.534;9.934;2023-07-13T07:30:45;99853.22;;;26.09;36.67
70841;BME280;58465;51.534;9.934;2023-07-13T07:33:10;99846.16;;;26.06;36.65
70841;BME280;58465;51.534;9.934;2023-07-13T07:35:36;99852.81;;;26.13;36.98
70841;BME280;58465;51.534;9.934;2023-07-13T07:38:01;99849.06;;;26.14;37.79
70841;BME280;58465;51.534;9.934;2023-07-13T07:40:26;99861.03;;;26.13;37.67
70841;BME280;58465;51.534;9.934;2023-07-13T07:42:51;99854.88;;;26.21;37.60
70841;BME280;58465;51.534;9.934;2023-07-13T07:45:17;99855.22;;;26.37;37.17
70841;BME280;58465;51.534;9.934;2023-07-13T07:47:42;99857.69;;;26.40;36.96
70841;BME280;58465;51.534;9.934;2023-07-13T07:50:07;99862.56;;;26.37;36.79
70841;BME280;58465;51.534;9.934;2023-07-13T07:52:32;99849.63;;;26.39;35.94
70841;BME280;58465;51.534;9.934;2023-07-13T07:54:58;99855.22;;;26.37;36.94
70841;BME280;58465;51.534;9.934;2023-07-13T07:57:23;99853.22;;;26.39;36.56
70841;BME280;58465;51.534;9.934;2023-07-13T07:59:48;99855.81;;;26.31;36.33
70841;BME280;58465;51.534;9.934;2023-07-13T08:02:13;99852.06;;;26.32;36.46
70841;BME280;58465;51.534;9.934;2023-07-13T08:04:39;99854.56;;;26.24;36.11
70841;BME280;58465;51.534;9.934;2023-07-13T08:07:05;99862.63;;;26.56;35.38
70841;BME280;58465;51.534;9.934;2023-07-13T08:09:31;99856.03;;;26.68;35.13
70841;BME280;58465;51.534;9.934;2023-07-13T08:11:56;99859.47;;;26.60;35.98
70841;BME280;58465;51.534;9.934;2023-07-13T08:14:21;99869.44;;;26.62;36.31
70841;BME280;58465;51.534;9.934;2023-07-13T08:16:47;99864.97;;;26.70;36.04
70841;BME280;58465;51.534;9.934;2023-07-13T08:19:12;99867.44;;;26.83;36.19
70841;BME280;58465;51.534;9.934;2023-07-13T08:21:37;99868.63;;;26.90;35.84
70841;BME280;58465;51.534;9.934;2023-07-13T08:24:02;99861.84;;;26.94;35.66
70841;BME280;58465;51.534;9.934;2023-07-13T08:26:28;99874.13;;;27.00;35.64
70841;BME280;58465;51.534;9.934;2023-07-13T08:28:53;99873.97;;;26.91;35.91
70841;BME280;58465;51.534;9.934;2023-07-13T08:31:18;99875.28;;;26.97;35.84
70841;BME280;58465;51.534;9.934;2023-07-13T08:33:43;99870.34;;;26.91;35.61
70841;BME280;58465;51.534;9.934;2023-07-13T08:36:09;99867.47;;;26.92;35.60
70841;BME280;58465;51.534;9.934;2023-07-13T08:38:34;99874.50;;;26.76;35.76
70841;BME280;58465;51.534;9.934;2023-07-13T08:40:59;99870.41;;;27.01;35.73
70841;BME280;58465;51.534;9.934;2023-07-13T08:43:28;99877.03;;;26.98;35.63
70841;BME280;58465;51.534;9.934;2023-07-13T08:45:59;99876.00;;;26.99;35.46
70841;BME280;58465;51.534;9.934;2023-07-13T08:48:30;99867.47;;;27.02;35.49
70841;BME280;58465;51.534;9.934;2023-07-13T08:53:22;99862.66;;;26.75;35.40
70841;BME280;58465;51.534;9.934;2023-07-13T08:55:48;99859.06;;;26.84;35.54
70841;BME280;58465;51.534;9.934;2023-07-13T08:58:16;99857.38;;;26.93;35.53
70841;BME280;58465;51.534;9.934;2023-07-13T09:03:19;99865.56;;;26.83;35.39
70841;BME280;58465;51.534;9.934;2023-07-13T09:05:45;99867.25;;;26.65;35.64
70841;BME280;58465;51.534;9.934;2023-07-13T09:10:46;99871.38;;;26.40;36.39
70841;BME280;58465;51.534;9.934;2023-07-13T09:13:15;99863.91;;;26.42;36.72
70841;BME280;58465;51.534;9.934;2023-07-13T09:15:45;99868.41;;;26.63;36.19
70841;BME280;58465;51.534;9.934;2023-07-13T09:18:16;99868.00;;;26.67;35.93
70841;BME280;58465;51.534;9.934;2023-07-13T09:23:14;99873.19;;;26.70;35.67
70841;BME280;58465;51.534;9.934;2023-07-13T09:25:39;99868.88;;;26.68;35.10
70841;BME280;58465;51.534;9.934;2023-07-13T09:30:37;99865.91;;;27.00;35.48
70841;BME280;58465;51.534;9.934;2023-07-13T09:33:05;99867.19;;;26.95;35.75
70841;BME280;58465;51.534;9.934;2023-07-13T09:35:30;99866.91;;;26.99;35.69
70841;BME280;58465;51.534;9.934;2023-07-13T09:38:02;99874.56;;;26.95;35.83
70841;BME280;58465;51.534;9.934;2023-07-13T09:40:53;99871.22;;;26.91;35.69
70841;BME280;58465;51.534;9.934;2023-07-13T09:43:15;99870.06;;;26.94;35.93
70841;BME280;58465;51.534;9.934;2023-07-13T09:45:41;99869.72;;;26.68;36.11
70841;BME280;58465;51.534;9.934;2023-07-13T09:48:11;99877.84;;;26.89;35.36
70841;BME280;58465;51.534;9.934;2023-07-13T09:50:38;99871.53;;;27.08;35.19
70841;BME280;58465;51.534;9.934;2023-07-13T09:53:03;99871.69;;;26.96;35.50
70841;BME280;58465;51.534;9.934;2023-07-13T09:55:30;99873.22;;;26.89;35.83
70841;BME280;58465;51.534;9.934;2023-07-13T09:57:56;99872.25;;;27.00;35.45
70841;BME280;58465;51.534;9.934;2023-07-13T10:00:25;99877.56;;;26.92;35.89
70841;BME280;58465;51.534;9.934;2023-07-13T10:03:01;99877.03;;;26.98;35.71
70841;BME280;58465;51.534;9.934;2023-07-13T10:05:28;99869.81;;;26.97;35.45
70841;BME280;58465;51.534;9.934;2023-07-13T10:08:01;99878.25;;;26.75;35.71
70841;BME280;58465;51.534;9.934;2023-07-13T10:10:26;99871.03;;;26.74;35.80
70841;BME280;58465;51.534;9.934;2023-07-13T10:12:52;99870.88;;;26.66;35.79
70841;BME280;58465;51.534;9.934;2023-07-13T10:15:21;99873.06;;;26.81;35.65
70841;BME280;58465;51.534;9.934;2023-07-13T10:17:47;99875.78;;;26.62;36.27
70841;BME280;58465;51.534;9.934;2023-07-13T10:20:13;99883.53;;;26.57;36.12
70841;BME280;58465;51.534;9.934;2023-07-13T10:22:43;99884.81;;;26.53;36.18
70841;BME280;58465;51.534;9.934;2023-07-13T10:25:20;99883.66;;;26.46;35.25
70841;BME280;58465;51.534;9.934;2023-07-13T10:27:47;99883.06;;;26.42;35.85
70841;BME280;58465;51.534;9.934;2023-07-13T10:30:19;99882.88;;;26.34;35.64
70841;BME280;58465;51.534;9.934;2023-07-13T10:32:45;99881.66;;;26.57;35.67
70841;BME280;58465;51.534;9.934;2023-07-13T10:35:12;99881.66;;;26.57;35.87
70841;BME280;58465;51.534;9.934;2023-07-13T10:37:40;99881.97;;;26.64;35.54
70841;BME280;58465;51.534;9.934;2023-07-13T10:40:11;99883.28;;;26.70;35.43
70841;BME280;58465;51.534;9.934;2023-07-13T10:42:39;99880.56;;;26.70;35.71
70841;BME280;58465;51.534;9.934;2023-07-13T10:45:19;99883.00;;;26.82;35.30
70841;BME280;58465;51.534;9.934;2023-07-13T10:47:45;99869.34;;;26.92;35.28
70841;BME280;58465;51.534;9.934;2023-07-13T10:50:29;99879.75;;;26.98;35.44
70841;BME280;58465;51.534;9.934;2023-07-13T10:52:56;99872.09;;;27.11;34.80
70841;BME280;58465;51.534;9.934;2023-07-13T10:55:30;99871.53;;;27.08;35.00
70841;BME280;58465;51.534;9.934;2023-07-13T10:57:55;99879.31;;;27.12;35.10
70841;BME280;58465;51.534;9.934;2023-07-13T11:00:24;99873.97;;;27.11;35.46
70841;BME280;58465;51.534;9.934;2023-07-13T11:02:56;99883.88;;;26.83;36.03
70841;BME280;58465;51.534;9.934;2023-07-13T11:05:29;99883.31;;;26.89;35.95
70841;BME280;58465;51.534;9.934;2023-07-13T11:07:56;99888.84;;;26.99;35.01
70841;BME280;58465;51.534;9.934;2023-07-13T11:13:35;99890.25;;;26.93;35.84
70841;BME280;58465;51.534;9.934;2023-07-13T11:15:56;99901.84;;;27.16;35.41
70841;BME280;58465;51.534;9.934;2023-07-13T11:18:22;99890.28;;;27.41;35.03
70841;BME280;58465;51.534;9.934;2023-07-13T11:20:49;99884.66;;;27.43;35.06
70841;BME280;58465;51.534;9.934;2023-07-13T11:25:43;99890.00;;;26.96;35.78
70841;BME280;58465;51.534;9.934;2023-07-13T11:30:38;99881.78;;;26.96;35.83
70841;BME280;58465;51.534;9.934;2023-07-13T11:35:34;99866.63;;;27.11;35.56
70841;BME280;58465;51.534;9.934;2023-07-13T11:38:00;99881.50;;;27.09;35.56
70841;BME280;58465;51.534;9.934;2023-07-13T11:40:27;99876.56;;;27.12;35.37
70841;BME280;58465;51.534;9.934;2023-07-13T11:42:58;99869.34;;;27.21;35.42
70841;BME280;58465;51.534;9.934;2023-07-13T11:45:23;99868.47;;;27.40;35.21
70841;BME280;58465;51.534;9.934;2023-07-13T11:47:49;99865.59;;;27.51;35.18
70841;BME280;58465;51.534;9.934;2023-07-13T11:50:21;99871.81;;;27.33;35.06
70841;BME280;58465;51.534;9.934;2023-07-13T11:52:48;99869.53;;;27.19;35.16
70841;BME280;58465;51.534;9.934;2023-07-13T11:55:16;99864.31;;;27.36;34.96
70841;BME280;58465;51.534;9.934;2023-07-13T11:57:43;99866.78;;;27.39;35.25
70841;BME280;58465;51.534;9.934;2023-07-13T12:00:11;99870.69;;;27.55;34.98
70841;BME280;58465;51.534;9.934;2023-07-13T12:02:38;99865.28;;;27.54;35.20
70841;BME280;58465;51.534;9.934;2023-07-13T12:05:04;99862.44;;;27.65;34.58
70841;BME280;58465;51.534;9.934;2023-07-13T12:07:30;99871.38;;;27.77;34.62
70841;BME280;58465;51.534;9.934;2023-07-13T12:10:00;99863.31;;;27.56;34.95
70841;BME280;58465;51.534;9.934;2023-07-13T12:12:28;99866.91;;;27.66;34.65
70841;BME280;58465;51.534;9.934;2023-07-13T12:14:54;99865.56;;;27.70;34.73
70841;BME280;58465;51.534;9.934;2023-07-13T12:17:20;99859.78;;;27.83;34.30
70841;BME280;58465;51.534;9.934;2023-07-13T12:19:47;99872.06;;;27.69;34.51
70841;BME280;58465;51.534;9.934;2023-07-13T12:22:13;99870.78;;;27.54;34.68
70841;BME280;58465;51.534;9.934;2023-07-13T12:24:43;99872.94;;;27.50;35.00
70841;BME280;58465;51.534;9.934;2023-07-13T12:27:21;99868.13;;;27.91;34.18
70841;BME280;58465;51.534;9.934;2023-07-13T12:30:15;99866.00;;;27.85;34.29
70841;BME280;58465;51.534;9.934;2023-07-13T12:32:35;99875.09;;;28.32;33.81
70841;BME280;58465;51.534;9.934;2023-07-13T12:35:14;99868.88;;;28.57;33.23
70841;BME280;58465;51.534;9.934;2023-07-13T12:37:41;99863.47;;;28.65;33.00
70841;BME280;58465;51.534;9.934;2023-07-13T12:40:12;99860.63;;;28.30;33.81
70841;BME280;58465;51.534;9.934;2023-07-13T12:42:38;99865.91;;;28.68;32.62
70841;BME280;58465;51.534;9.934;2023-07-13T12:48:10;99874.31;;;29.47;32.11
70841;BME280;58465;51.534;9.934;2023-07-13T12:50:39;99878.63;;;29.68;31.52
70841;BME280;58465;51.534;9.934;2023-07-13T12:53:17;99874.94;;;29.41;31.54
70841;BME280;58465;51.534;9.934;2023-07-13T12:55:46;99882.06;;;28.81;32.43
70841;BME280;58465;51.534;9.934;2023-07-13T13:00:50;99892.50;;;28.50;33.10
70841;BME280;58465;51.534;9.934;2023-07-13T13:05:45;99889.28;;;28.18;33.92
70841;BME280;58465;51.534;9.934;2023-07-13T13:08:16;99891.34;;;28.06;34.32
70841;BME280;58465;51.534;9.934;2023-07-13T13:10:42;99903.72;;;28.57;33.27
70841;BME280;58465;51.534;9.934;2023-07-13T13:13:07;99891.94;;;29.98;30.96
70841;BME280;58465;51.534;9.934;2023-07-13T13:15:33;99887.38;;;29.89;31.01
70841;BME280;58465;51.534;9.934;2023-07-13T13:17:58;99886.41;;;29.01;32.34
70841;BME280;58465;51.534;9.934;2023-07-13T13:20:24;99890.19;;;29.53;31.20
70841;BME280;58465;51.534;9.934;2023-07-13T13:22:50;99888.72;;;30.79;29.45
70841;BME280;58465;51.534;9.934;2023-07-13T13:25:16;99890.97;;;31.90;28.18
70841;BME280;58465;51.534;9.934;2023-07-13T13:27:41;99898.38;;;31.74;27.74
70841;BME280;58465;51.534;9.934;2023-07-13T13:30:11;99896.84;;;30.80;29.00